createdAt,value
2022-08-23T00:02:03.375Z,52.30
2022-08-23T00:04:40.354Z,52.30
2022-08-23T00:07:28.061Z,52.30
2022-08-23T00:09:56.505Z,52.70
2022-08-23T00:12:25.749Z,52.70
2022-08-23T00:14:55.195Z,52.60
2022-08-23T00:17:33.225Z,52.90
2022-08-23T00:20:03.638Z,52.80
2022-08-23T00:22:30.392Z,52.70
2022-08-23T00:24:57.106Z,52.80
2022-08-23T00:27:23.823Z,52.90
2022-08-23T00:29:52.833Z,52.70
2022-08-23T00:32:24.930Z,52.90
2022-08-23T00:34:52.311Z,53.00
2022-08-23T00:37:19.770Z,53.00
2022-08-23T00:39:46.574Z,53.10
2022-08-23T00:43:02.531Z,53.10
2022-08-23T00:46:00.117Z,53.30
2022-08-23T00:48:27.271Z,52.90
2022-08-23T00:51:04.531Z,52.90
2022-08-23T00:53:38.460Z,53.10
2022-08-23T00:56:07.567Z,53.20
2022-08-23T00:58:34.936Z,53.30
2022-08-23T01:01:03.188Z,53.20
2022-08-23T01:03:38.662Z,53.50
2022-08-23T01:06:30.705Z,53.50
2022-08-23T01:09:04.905Z,53.40
2022-08-23T01:11:41.663Z,53.50
2022-08-23T01:14:19.032Z,53.50
2022-08-23T01:17:19.423Z,53.40
2022-08-23T01:19:55.288Z,53.30
2022-08-23T01:22:30.224Z,53.10
2022-08-23T01:25:08.335Z,53.10
2022-08-23T01:27:37.143Z,53.00
2022-08-23T01:30:07.210Z,53.10
2022-08-23T01:32:40.265Z,53.10
2022-08-23T01:35:07.348Z,53.30
2022-08-23T01:37:34.383Z,53.30
2022-08-23T01:40:01.139Z,53.30
2022-08-23T01:42:28.507Z,53.50
2022-08-23T01:44:55.256Z,53.50
2022-08-23T01:47:22.154Z,53.40
2022-08-23T01:49:48.890Z,53.50
2022-08-23T01:52:15.588Z,53.50
2022-08-23T01:54:42.366Z,53.50
2022-08-23T01:57:10.934Z,53.50
2022-08-23T01:59:38.168Z,53.70
2022-08-23T02:02:05.053Z,53.70
2022-08-23T02:04:31.774Z,53.80
2022-08-23T02:06:58.649Z,53.90
2022-08-23T02:09:25.702Z,53.90
2022-08-23T02:11:52.548Z,54.20
2022-08-23T02:14:20.717Z,54.50
2022-08-23T02:16:59.984Z,54.30
2022-08-23T02:19:33.099Z,54.20
2022-08-23T02:22:00.015Z,54.20
2022-08-23T02:24:27.164Z,54.20
2022-08-23T02:26:59.560Z,54.10
2022-08-23T02:29:29.855Z,54.10
2022-08-23T02:32:00.314Z,54.70
2022-08-23T02:37:15.147Z,54.00
2022-08-23T02:39:42.476Z,53.90
2022-08-23T02:42:11.516Z,54.00
2022-08-23T02:44:39.954Z,54.00
2022-08-23T02:47:08.923Z,54.10
2022-08-23T02:49:36.532Z,54.20
2022-08-23T02:52:06.382Z,54.30
2022-08-23T02:54:34.650Z,54.40
2022-08-23T02:57:02.049Z,54.40
2022-08-23T02:59:28.876Z,54.30
2022-08-23T03:01:55.706Z,54.50
2022-08-23T03:04:22.596Z,54.50
2022-08-23T03:06:49.389Z,54.50
2022-08-23T03:09:16.506Z,54.40
2022-08-23T03:11:45.157Z,54.50
2022-08-23T03:14:12.238Z,54.50
2022-08-23T03:16:39.236Z,54.60
2022-08-23T03:19:06.486Z,54.40
2022-08-23T03:21:33.362Z,54.40
2022-08-23T03:24:00.770Z,54.40
2022-08-23T03:26:27.606Z,54.40
2022-08-23T03:28:54.997Z,54.30
2022-08-23T03:31:23.693Z,54.30
2022-08-23T03:33:50.479Z,54.20
2022-08-23T03:36:17.361Z,54.30
2022-08-23T03:38:45.304Z,54.20
2022-08-23T03:41:12.602Z,54.10
2022-08-23T03:43:39.877Z,54.10
2022-08-23T03:46:08.108Z,54.00
2022-08-23T03:48:35.033Z,54.00
2022-08-23T03:51:01.976Z,53.90
2022-08-23T03:53:28.759Z,54.00
2022-08-23T03:55:55.918Z,53.90
2022-08-23T03:58:23.506Z,54.00
2022-08-23T04:00:50.349Z,54.00
2022-08-23T04:03:17.109Z,53.90
2022-08-23T04:05:43.854Z,54.10
2022-08-23T04:08:11.376Z,54.00
2022-08-23T04:10:39.059Z,54.00
2022-08-23T04:13:07.124Z,54.00
2022-08-23T04:15:33.901Z,54.00
2022-08-23T04:18:01.695Z,54.00
2022-08-23T04:20:29.139Z,53.90
2022-08-23T04:22:56.576Z,53.80
2022-08-23T04:25:33.389Z,53.80
2022-08-23T04:28:02.934Z,53.80
2022-08-23T04:30:30.061Z,53.80
2022-08-23T04:32:57.327Z,53.70
2022-08-23T04:35:25.393Z,53.70
2022-08-23T04:37:52.563Z,53.80
2022-08-23T04:40:37.882Z,53.80
2022-08-23T04:43:04.793Z,53.80
2022-08-23T04:45:32.560Z,53.70
2022-08-23T04:47:59.478Z,53.60
2022-08-23T04:50:26.285Z,53.60
2022-08-23T04:52:53.399Z,53.70
2022-08-23T04:55:20.171Z,53.60
2022-08-23T04:57:47.078Z,53.50
2022-08-23T05:00:16.329Z,53.50
2022-08-23T05:02:43.758Z,53.50
2022-08-23T05:05:11.175Z,53.50
2022-08-23T05:07:42.730Z,53.40
2022-08-23T05:10:15.559Z,53.50
2022-08-23T05:12:42.520Z,53.40
2022-08-23T05:15:09.953Z,53.40
2022-08-23T05:17:37.039Z,53.30
2022-08-23T05:20:05.441Z,53.30
2022-08-23T05:22:41.001Z,53.20
2022-08-23T05:25:08.255Z,53.20
2022-08-23T05:27:35.806Z,53.20
2022-08-23T05:30:02.920Z,53.30
2022-08-23T05:32:33.299Z,53.20
2022-08-23T05:35:00.801Z,53.10
2022-08-23T05:37:27.621Z,53.20
2022-08-23T05:39:54.435Z,53.10
2022-08-23T05:42:21.350Z,53.00
2022-08-23T05:44:48.102Z,53.20
2022-08-23T05:47:16.640Z,53.00
2022-08-23T05:49:44.407Z,53.00
2022-08-23T05:52:13.174Z,53.00
2022-08-23T05:54:40.057Z,53.00
2022-08-23T05:57:06.834Z,52.90
2022-08-23T05:59:34.885Z,53.00
2022-08-23T06:02:02.026Z,52.90
2022-08-23T06:04:28.837Z,52.80
2022-08-23T06:06:58.735Z,52.90
2022-08-23T06:09:26.425Z,52.80
2022-08-23T06:11:53.964Z,52.60
2022-08-23T06:14:21.155Z,52.70
2022-08-23T06:16:53.611Z,52.60
2022-08-23T06:19:21.920Z,53.20
2022-08-23T06:21:48.962Z,52.50
2022-08-23T06:24:15.901Z,52.50
2022-08-23T06:26:45.280Z,52.50
2022-08-23T06:29:14.973Z,52.30
2022-08-23T06:31:50.798Z,52.20
2022-08-23T06:34:34.711Z,52.20
2022-08-23T06:37:05.647Z,52.00
2022-08-23T06:39:35.564Z,52.00
2022-08-23T06:42:34.410Z,51.80
2022-08-23T06:44:55.736Z,51.60
2022-08-23T06:47:23.273Z,51.60
2022-08-23T06:49:55.438Z,51.50
2022-08-23T06:52:25.845Z,51.40
2022-08-23T06:54:54.149Z,51.40
2022-08-23T06:57:20.909Z,51.20
2022-08-23T06:59:49.809Z,51.00
2022-08-23T07:02:16.800Z,51.10
2022-08-23T07:04:43.678Z,51.10
2022-08-23T07:07:12.277Z,51.20
2022-08-23T07:09:40.205Z,51.00
2022-08-23T07:12:07.274Z,51.10
2022-08-23T07:14:34.288Z,51.60
2022-08-23T07:17:03.522Z,50.90
2022-08-23T07:19:32.686Z,50.90
2022-08-23T07:22:00.731Z,50.80
2022-08-23T07:24:33.066Z,50.60
2022-08-23T07:27:01.770Z,50.40
2022-08-23T07:29:29.996Z,50.20
2022-08-23T07:31:58.002Z,50.20
2022-08-23T07:34:26.097Z,50.20
2022-08-23T07:36:53.367Z,50.30
2022-08-23T07:39:21.974Z,50.30
2022-08-23T07:41:49.498Z,50.10
2022-08-23T07:44:18.318Z,50.00
2022-08-23T07:46:46.495Z,49.90
2022-08-23T07:49:13.818Z,49.70
2022-08-23T07:51:43.133Z,49.80
2022-08-23T07:54:10.776Z,49.70
2022-08-23T07:56:38.130Z,49.60
2022-08-23T07:59:06.153Z,49.20
2022-08-23T08:01:33.585Z,48.80
2022-08-23T08:04:02.016Z,48.70
2022-08-23T08:06:46.071Z,48.80
2022-08-23T08:09:13.362Z,49.00
2022-08-23T08:11:43.496Z,48.80
2022-08-23T08:14:11.114Z,49.00
2022-08-23T08:16:42.189Z,48.80
2022-08-23T08:19:11.243Z,48.70
2022-08-23T08:21:42.159Z,48.50
2022-08-23T08:24:11.344Z,48.50
2022-08-23T08:26:38.268Z,48.20
2022-08-23T08:29:05.871Z,48.50
2022-08-23T08:31:33.046Z,48.50
2022-08-23T08:33:59.790Z,48.40
2022-08-23T08:36:42.784Z,48.20
2022-08-23T08:39:12.432Z,47.70
2022-08-23T08:41:45.260Z,47.60
2022-08-23T08:44:53.542Z,48.00
2022-08-23T08:47:43.797Z,47.30
2022-08-23T08:50:20.138Z,47.10
2022-08-23T08:53:09.355Z,47.30
2022-08-23T08:55:46.268Z,46.50
2022-08-23T08:58:37.104Z,46.60
2022-08-23T09:01:03.883Z,46.60
2022-08-23T09:03:34.782Z,46.80
2022-08-23T09:06:03.872Z,45.90
2022-08-23T09:08:42.568Z,45.50
2022-08-23T09:11:27.789Z,45.70
2022-08-23T09:14:34.122Z,45.70
2022-08-23T09:17:06.823Z,44.90
2022-08-23T09:19:35.063Z,45.60
2022-08-23T09:22:06.908Z,44.70
2022-08-23T09:24:33.729Z,44.60
2022-08-23T09:27:00.505Z,44.00
2022-08-23T09:29:33.442Z,43.90
2022-08-23T09:32:02.651Z,43.50
2022-08-23T09:34:32.518Z,44.10
2022-08-23T09:37:11.188Z,43.70
2022-08-23T09:39:41.104Z,43.80
2022-08-23T09:42:36.479Z,42.90
2022-08-23T09:45:24.383Z,42.60
2022-08-23T09:47:51.454Z,42.50
2022-08-23T09:50:26.405Z,40.70
2022-08-23T09:53:14.402Z,41.60
2022-08-23T09:55:52.075Z,41.50
2022-08-23T09:58:36.764Z,41.70
2022-08-23T10:01:24.081Z,42.00
2022-08-23T10:04:12.627Z,41.60
2022-08-23T10:06:41.805Z,40.40
2022-08-23T10:09:09.837Z,41.30
2022-08-23T10:11:40.650Z,40.30
2022-08-23T10:14:07.480Z,40.60
2022-08-23T10:17:12.892Z,39.10
2022-08-23T10:20:06.593Z,39.30
2022-08-23T10:22:49.421Z,39.10
2022-08-23T10:25:22.077Z,40.00
2022-08-23T10:28:15.111Z,40.00
2022-08-23T10:31:14.022Z,39.70
2022-08-23T10:33:57.461Z,37.70
2022-08-23T10:36:34.651Z,38.00
2022-08-23T10:39:10.489Z,38.20
2022-08-23T10:41:59.468Z,37.80
2022-08-23T10:44:39.344Z,38.00
2022-08-23T10:47:12.134Z,37.70
2022-08-23T10:49:40.789Z,38.40
2022-08-23T10:52:11.082Z,38.90
2022-08-23T10:54:59.421Z,39.10
2022-08-23T10:57:46.737Z,39.00
2022-08-23T11:00:23.515Z,36.80
2022-08-23T11:02:57.735Z,36.50
2022-08-23T11:05:31.061Z,38.10
2022-08-23T11:08:04.511Z,38.20
2022-08-23T11:10:56.086Z,38.10
2022-08-23T11:13:30.437Z,38.20
2022-08-23T11:16:07.992Z,37.50
2022-08-23T11:18:42.577Z,37.10
2022-08-23T11:21:18.667Z,37.40
2022-08-23T11:23:59.600Z,37.70
2022-08-23T11:26:26.297Z,38.10
2022-08-23T11:28:55.509Z,37.60
2022-08-23T11:31:34.553Z,38.20
2022-08-23T11:34:03.241Z,37.90
2022-08-23T11:36:32.121Z,37.70
2022-08-23T11:38:58.864Z,38.40
2022-08-23T11:41:30.459Z,37.80
2022-08-23T11:43:57.209Z,37.20
2022-08-23T11:46:31.370Z,37.10
2022-08-23T11:49:03.375Z,36.70
2022-08-23T11:51:43.091Z,35.20
2022-08-23T11:54:20.204Z,34.40
2022-08-23T11:56:59.174Z,35.50
2022-08-23T12:00:04.473Z,33.40
2022-08-23T12:02:53.141Z,33.30
2022-08-23T12:05:32.472Z,35.10
2022-08-23T12:08:02.685Z,35.40
2022-08-23T12:10:41.786Z,35.90
2022-08-23T12:13:32.947Z,35.70
2022-08-23T12:16:17.509Z,35.20
2022-08-23T12:18:57.219Z,35.40
2022-08-23T12:21:27.327Z,34.30
2022-08-23T12:24:01.295Z,34.40
2022-08-23T12:26:49.494Z,34.50
2022-08-23T12:29:45.033Z,33.70
2022-08-23T12:32:33.959Z,34.00
2022-08-23T12:35:16.923Z,32.30
2022-08-23T12:37:53.801Z,32.50
2022-08-23T12:40:35.668Z,32.90
2022-08-23T12:43:10.826Z,34.60
2022-08-23T12:45:50.243Z,35.10
2022-08-23T12:48:20.951Z,34.20
2022-08-23T12:50:55.892Z,33.00
2022-08-23T12:53:27.898Z,33.90
2022-08-23T12:56:01.408Z,32.50
2022-08-23T12:58:33.427Z,32.60
2022-08-23T13:01:04.001Z,32.80
2022-08-23T13:03:34.799Z,33.60
2022-08-23T13:06:08.720Z,33.60
2022-08-23T13:08:46.121Z,33.30
2022-08-23T13:11:14.678Z,33.60
2022-08-23T13:13:44.106Z,34.20
2022-08-23T13:16:47.187Z,34.50
2022-08-23T13:19:27.270Z,34.50
2022-08-23T13:22:22.397Z,34.50
2022-08-23T13:25:27.596Z,34.20
2022-08-23T13:28:27.281Z,33.70
2022-08-23T13:31:08.049Z,33.30
2022-08-23T13:33:35.436Z,32.90
2022-08-23T13:36:15.306Z,33.80
2022-08-23T13:38:43.350Z,33.10
2022-08-23T13:41:13.968Z,32.30
2022-08-23T13:43:48.273Z,32.10
2022-08-23T13:46:29.618Z,33.50
2022-08-23T13:49:18.982Z,33.50
2022-08-23T13:52:18.713Z,34.10
2022-08-23T13:54:51.232Z,34.10
2022-08-23T13:57:19.962Z,34.20
2022-08-23T13:59:55.486Z,34.30
2022-08-23T14:02:23.812Z,33.70
2022-08-23T14:04:50.756Z,33.90
2022-08-23T14:07:18.241Z,33.70
2022-08-23T14:09:45.618Z,34.20
2022-08-23T14:12:15.913Z,34.20
2022-08-23T14:14:42.881Z,35.40
2022-08-23T14:17:12.787Z,35.10
2022-08-23T14:20:32.614Z,35.30
2022-08-23T14:22:26.880Z,35.50
2022-08-23T14:24:53.645Z,35.70
2022-08-23T14:27:20.378Z,35.60
2022-08-23T14:29:47.136Z,35.80
2022-08-23T14:32:13.879Z,35.60
2022-08-23T14:34:40.655Z,35.70
2022-08-23T14:39:54.290Z,35.00
2022-08-23T14:42:22.710Z,34.80
2022-08-23T14:44:49.994Z,35.00
2022-08-23T14:47:17.620Z,35.00
2022-08-23T14:49:44.468Z,34.50
2022-08-23T14:52:13.381Z,34.30
2022-08-23T14:54:40.133Z,34.60
2022-08-23T14:57:06.890Z,34.30
2022-08-23T14:59:33.830Z,33.90
2022-08-23T15:02:01.483Z,34.20
2022-08-23T15:04:28.845Z,34.20
2022-08-23T15:07:18.911Z,34.70
2022-08-23T15:09:51.093Z,35.00
2022-08-23T15:15:12.317Z,34.80
2022-08-23T15:17:52.604Z,34.80
2022-08-23T15:20:22.059Z,35.00
2022-08-23T15:23:05.305Z,35.20
2022-08-23T15:25:35.258Z,35.30
2022-08-23T15:28:02.837Z,35.40
2022-08-23T15:30:33.311Z,35.60
2022-08-23T15:33:00.816Z,36.30
2022-08-23T15:35:28.849Z,35.50
2022-08-23T15:37:56.488Z,35.50
2022-08-23T15:40:25.607Z,35.50
2022-08-23T15:42:53.070Z,35.20
2022-08-23T15:45:20.156Z,34.80
2022-08-23T15:47:52.654Z,34.90
2022-08-23T15:50:27.312Z,35.00
2022-08-23T15:52:54.713Z,34.80
2022-08-23T15:55:21.629Z,34.70
2022-08-23T15:57:50.450Z,34.90
2022-08-23T16:00:19.259Z,34.50
2022-08-23T16:03:27.770Z,34.40
2022-08-23T16:05:33.102Z,34.50
2022-08-23T16:08:00.143Z,34.70
2022-08-23T16:10:28.161Z,34.60
2022-08-23T16:12:55.567Z,34.30
2022-08-23T16:15:22.449Z,34.60
2022-08-23T16:17:49.445Z,34.30
2022-08-23T16:20:17.186Z,34.20
2022-08-23T16:22:44.165Z,34.50
2022-08-23T16:25:11.139Z,34.40
2022-08-23T16:27:38.070Z,34.50
2022-08-23T16:30:06.399Z,34.40
2022-08-23T16:32:33.336Z,34.40
2022-08-23T16:35:00.124Z,34.50
2022-08-23T16:37:26.909Z,34.60
2022-08-23T16:39:53.784Z,34.70
2022-08-23T16:42:20.588Z,34.70
2022-08-23T16:44:47.295Z,34.70
2022-08-23T16:47:15.471Z,34.80
2022-08-23T16:49:43.206Z,34.70
2022-08-23T16:52:13.054Z,34.80
2022-08-23T16:54:40.264Z,34.80
2022-08-23T16:57:07.037Z,34.80
2022-08-23T16:59:40.247Z,34.90
2022-08-23T17:02:10.822Z,34.80
2022-08-23T17:04:38.243Z,34.80
2022-08-23T17:07:05.099Z,34.80
2022-08-23T17:09:31.808Z,34.80
2022-08-23T17:11:58.784Z,34.80
2022-08-23T17:14:26.239Z,34.90
2022-08-23T17:16:53.153Z,34.90
2022-08-23T17:19:20.233Z,34.90
2022-08-23T17:21:47.039Z,34.80
2022-08-23T17:24:13.748Z,34.80
2022-08-23T17:26:40.496Z,35.00
2022-08-23T17:29:07.447Z,35.10
2022-08-23T17:31:34.260Z,35.10
2022-08-23T17:34:03.815Z,35.20
2022-08-23T17:36:38.369Z,35.30
2022-08-23T17:39:10.032Z,35.20
2022-08-23T17:41:38.564Z,35.40
2022-08-23T17:44:07.679Z,35.50
2022-08-23T17:46:36.131Z,35.50
2022-08-23T17:49:03.607Z,35.60
2022-08-23T17:51:30.357Z,35.60
2022-08-23T17:53:57.188Z,35.70
2022-08-23T17:56:24.609Z,35.80
2022-08-23T17:58:53.677Z,36.00
2022-08-23T18:01:22.032Z,36.10
2022-08-23T18:03:49.209Z,36.20
2022-08-23T18:06:17.564Z,36.30
2022-08-23T18:08:44.973Z,36.40
2022-08-23T18:11:11.917Z,36.50
2022-08-23T18:13:38.753Z,36.50
2022-08-23T18:16:06.536Z,36.60
2022-08-23T18:18:33.441Z,36.70
2022-08-23T18:21:05.951Z,37.30
2022-08-23T18:23:32.822Z,36.80
2022-08-23T18:26:05.660Z,36.90
2022-08-23T18:28:32.704Z,36.90
2022-08-23T18:31:03.412Z,36.90
2022-08-23T18:33:32.335Z,37.00
2022-08-23T18:36:14.850Z,37.10
2022-08-23T18:38:41.649Z,37.20
2022-08-23T18:41:08.360Z,37.20
2022-08-23T18:43:37.128Z,37.40
2022-08-23T18:46:05.445Z,37.50
2022-08-23T18:48:33.851Z,37.60
2022-08-23T18:51:00.972Z,37.70
2022-08-23T18:53:28.090Z,37.80
2022-08-23T18:55:54.873Z,37.90
2022-08-23T18:58:21.804Z,38.00
2022-08-23T19:00:50.636Z,38.10
2022-08-23T19:03:17.856Z,38.10
2022-08-23T19:05:45.229Z,38.20
2022-08-23T19:08:13.132Z,38.30
2022-08-23T19:10:41.589Z,38.40
2022-08-23T19:13:09.680Z,38.60
2022-08-23T19:15:37.169Z,38.70
2022-08-23T19:18:04.237Z,38.90
2022-08-23T19:20:31.065Z,39.60
2022-08-23T19:22:58.225Z,39.20
2022-08-23T19:25:25.340Z,39.30
2022-08-23T19:27:52.479Z,39.50
2022-08-23T19:30:19.520Z,39.70
2022-08-23T19:32:46.886Z,39.90
2022-08-23T19:35:14.445Z,39.90
2022-08-23T19:37:41.479Z,40.00
2022-08-23T19:40:09.178Z,40.10
2022-08-23T19:42:37.846Z,40.20
2022-08-23T19:45:06.407Z,40.20
2022-08-23T19:47:33.810Z,40.30
2022-08-23T19:50:01.120Z,40.40
2022-08-23T19:52:27.975Z,40.50
2022-08-23T19:54:59.007Z,40.60
2022-08-23T19:57:32.796Z,40.60
2022-08-23T20:00:00.886Z,40.80
2022-08-23T20:02:28.457Z,40.80
2022-08-23T20:04:58.208Z,41.60
2022-08-23T20:07:25.291Z,41.00
2022-08-23T20:09:52.238Z,41.00
2022-08-23T20:12:19.252Z,41.00
2022-08-23T20:14:47.003Z,41.10
2022-08-23T20:17:14.063Z,41.10
2022-08-23T20:19:41.843Z,41.20
2022-08-23T20:22:27.218Z,41.20
2022-08-23T20:24:54.454Z,41.10
2022-08-23T20:27:24.063Z,41.10
2022-08-23T20:29:58.931Z,41.10
2022-08-23T20:32:26.399Z,41.20
2022-08-23T20:34:53.425Z,41.20
2022-08-23T20:37:20.158Z,41.30
2022-08-23T20:39:46.928Z,41.30
2022-08-23T20:42:13.848Z,41.30
2022-08-23T20:44:40.707Z,41.30
2022-08-23T20:47:07.614Z,41.30
2022-08-23T20:49:34.423Z,41.40
2022-08-23T20:52:01.225Z,41.40
2022-08-23T20:54:28.203Z,41.40
2022-08-23T20:56:54.939Z,41.40
2022-08-23T20:59:21.739Z,41.50
2022-08-23T21:01:49.089Z,41.50
2022-08-23T21:04:17.066Z,41.70
2022-08-23T21:06:47.965Z,41.70
2022-08-23T21:09:19.159Z,41.60
2022-08-23T21:11:47.132Z,41.70
2022-08-23T21:14:17.087Z,41.70
2022-08-23T21:16:45.120Z,41.70
2022-08-23T21:19:12.657Z,41.80
2022-08-23T21:21:40.210Z,41.80
2022-08-23T21:24:08.019Z,41.90
2022-08-23T21:26:35.611Z,41.90
2022-08-23T21:29:02.539Z,42.00
2022-08-23T21:31:29.375Z,42.00
2022-08-23T21:33:56.159Z,42.00
2022-08-23T21:36:23.597Z,42.00
2022-08-23T21:38:50.605Z,42.10
2022-08-23T21:41:48.844Z,42.20
2022-08-23T21:44:18.780Z,42.40
2022-08-23T21:46:46.178Z,42.30
2022-08-23T21:49:13.414Z,42.40
2022-08-23T21:51:41.618Z,42.50
2022-08-23T21:54:09.328Z,42.60
2022-08-23T21:56:36.739Z,42.80
2022-08-23T21:59:06.090Z,42.80
2022-08-23T22:01:36.676Z,42.90
2022-08-23T22:04:06.532Z,42.90
2022-08-23T22:06:34.970Z,43.00
2022-08-23T22:09:02.159Z,43.10
2022-08-23T22:11:29.173Z,43.20
2022-08-23T22:13:56.643Z,43.30
2022-08-23T22:16:23.435Z,43.40
2022-08-23T22:18:50.238Z,43.50
2022-08-23T22:21:17.321Z,43.60
2022-08-23T22:23:44.811Z,43.50
2022-08-23T22:26:13.740Z,43.60
2022-08-23T22:28:44.370Z,43.60
2022-08-23T22:31:13.250Z,43.80
2022-08-23T22:33:41.150Z,43.90
2022-08-23T22:36:11.451Z,44.00
2022-08-23T22:38:38.654Z,43.90
2022-08-23T22:41:06.044Z,44.00
2022-08-23T22:43:32.899Z,44.00
2022-08-23T22:46:01.410Z,44.10
2022-08-23T22:48:31.181Z,44.80
2022-08-23T22:51:07.516Z,44.40
2022-08-23T22:53:36.233Z,44.40
2022-08-23T22:56:03.656Z,44.90
2022-08-23T22:58:30.375Z,44.50
2022-08-23T23:00:57.206Z,44.60
2022-08-23T23:03:24.025Z,44.70
2022-08-23T23:05:51.148Z,44.70
2022-08-23T23:08:27.173Z,44.70
2022-08-23T23:10:59.804Z,45.00
2022-08-23T23:13:29.351Z,45.00
2022-08-23T23:15:56.880Z,45.10
2022-08-23T23:18:24.703Z,45.00
2022-08-23T23:20:51.943Z,45.20
2022-08-23T23:23:21.649Z,45.10
2022-08-23T23:25:49.474Z,45.10
2022-08-23T23:28:17.884Z,45.20
2022-08-23T23:30:46.602Z,45.30
2022-08-23T23:33:13.515Z,45.30
2022-08-23T23:35:40.667Z,45.30
2022-08-23T23:38:07.692Z,45.40
2022-08-23T23:40:34.846Z,45.50
2022-08-23T23:43:01.749Z,45.50
2022-08-23T23:45:29.715Z,45.60
2022-08-23T23:47:56.578Z,45.80
2022-08-23T23:50:23.926Z,45.70
2022-08-23T23:52:51.100Z,45.60
2022-08-23T23:55:19.826Z,45.80
2022-08-23T23:57:46.714Z,45.60
